site sitenws-alerts: Checking more than four warning/county codes can delay the loading of your pages. You should use a cron job to get the data.

Nearby METAR Weather Reports

 

KETB - West Bend Municipal Airport, West Bend, WI
Updated: 08/24/2019 5:35pm
Clear
Clear
 Wind from SE
Wind: SE 8 mph , 13 km/h
Temperature: 70°F , 21°C
Dew Point: 46°F , 8°C
Humidity: 43%
Barometer: 30.25 inHg , 1024.4 hPa
Clouds: Clear
Visibility: 10 miles , 16 km
2019/08/24 22:35 KETB 242235Z AUTO 13007KT 10SM CLR 21/08 A3025 RMK AO2
KOSH - Wittman Regional Airport, Oshkosh, WI
Updated: 08/24/2019 5:53pm
Clear
Clear
 Wind from ESE
Wind: ESE 8 mph , 13 km/h
Temperature: 72°F , 22°C
Dew Point: 54°F , 12°C
Humidity: 53%
Barometer: 30.23 inHg , 1023.7 hPa
Clouds: Clear
Visibility: 10 miles , 16 km
2019/08/24 22:53 KOSH 242253Z 11007KT 10SM CLR 22/12 A3023 RMK AO2 SLP229 T02220117
 
KSBM - Sheboygan County Memorial, Sheboygan, WI
Updated: 08/24/2019 5:53pm
Clear
Clear
 Wind from ENE
Wind: ENE 6 mph , 9 km/h
Temperature: 70°F , 21°C
Dew Point: 52°F , 11°C
Humidity: 53%
Barometer: 30.25 inHg , 1024.4 hPa
Clouds: Clear
Visibility: 10 miles , 16 km
2019/08/24 22:53 KSBM 242253Z AUTO 07005KT 10SM CLR 21/11 A3025 RMK AO2 SLP244 T02110106
KFLD - FDL County Airport, Fond du Lac, WI
Updated: 08/24/2019 5:53pm
Clear
Clear
 Wind from SE
Wind: SE 10 mph , 17 km/h
Temperature: 73°F , 23°C
Dew Point: 52°F , 11°C
Humidity: 47%
Barometer: 30.24 inHg , 1024 hPa
Clouds: Clear
Visibility: 10 miles , 16 km
2019/08/24 22:53 KFLD 242253Z AUTO 13009KT 10SM CLR 23/11 A3024 RMK AO2 SLP239 T02280111
 
KMKE - General Mitchell Field, Milwaukee, WI
Updated: 08/24/2019 5:52pm
Partly cloudy
Partly cloudy
 Wind from E
Wind: E 10 mph , 17 km/h
Temperature: 70°F , 21°C
Dew Point: 52°F , 11°C
Humidity: 53%
Barometer: 30.24 inHg , 1024 hPa
Clouds: Partly cloudy
Visibility: 10 miles , 16 km
Cloud details: Few Clouds 4500 ft
Partly cloudy 25000 ft
2019/08/24 22:52 KMKE 242252Z 08009KT 10SM FEW045 SCT250 21/11 A3024 RMK AO2 SLP239 T02110111
KMSN - Truax Field, Madison, WI
Updated: 08/24/2019 5:53pm
Partly cloudy
Partly cloudy
 Wind from ESE
Wind: ESE 10 mph , 17 km/h
Temperature: 72°F , 22°C
Dew Point: 52°F , 11°C
Humidity: 50%
Barometer: 30.21 inHg , 1023 hPa
Clouds: Partly cloudy
Visibility: 10 miles , 16 km
Cloud details: Few Clouds 4800 ft
Partly cloudy 25000 ft
2019/08/24 22:53 KMSN 242253Z 11009KT 10SM FEW048 SCT250 22/11 A3021 RMK AO2 SLP229 T02170111
 
KGRB - Austin Strable Field, Green Bay, WI
Updated: 08/24/2019 5:53pm
Clear
Clear
 Wind from SE
Wind: SE 9 mph , 15 km/h
Temperature: 73°F , 23°C
Dew Point: 54°F , 12°C
Humidity: 50%
Barometer: 30.24 inHg , 1024 hPa
Clouds: Clear
Visibility: 10 miles , 16 km
2019/08/24 22:53 KGRB 242253Z 13008KT 10SM CLR 23/12 A3024 RMK AO2 SLP242 T02280122
KSUW - Bong Airport, Superior, WI
Updated: 08/24/2019 5:55pm
Mostly cloudy
Mostly cloudy
 Wind from calm
Wind: Calm
Temperature: 70°F , 21°C
Dew Point: 54°F , 12°C
Humidity: 57%
Barometer: 30.17 inHg , 1021.7 hPa
Clouds: Mostly cloudy
Visibility: 10 miles , 16 km
Cloud details: Mostly cloudy 5000 ft
2019/08/24 22:55 KSUW 242255Z AUTO 00000KT 10SM BKN050 21/12 A3017 RMK AO2 T02120118
 
KLSE - La Crosse Municipal Airport, La Crosse, WI
Updated: 08/24/2019 5:53pm
Overcast
Overcast
 Wind from SSE
Wind: SSE 12 mph , 19 km/h
Temperature: 75°F , 24°C
Dew Point: 54°F , 12°C
Humidity: 47%
Barometer: 30.17 inHg , 1021.7 hPa
Clouds: Overcast
Visibility: 10 miles , 16 km
Cloud details: Overcast 5500 ft
2019/08/24 22:53 KLSE 242253Z 16010KT 10SM OVC055 24/12 A3017 RMK AO2 SLP212 T02390117
KIMT - Ford Field, Iron Mountain, MI
Updated: 08/24/2019 5:54pm
Partly cloudy
Partly cloudy
 Wind from SSW
Wind: SSW 9 mph , 15 km/h
Temperature: 72°F , 22°C
Dew Point: 50°F , 10°C
Humidity: 47%
Barometer: 30.25 inHg , 1024.4 hPa
Clouds: Partly cloudy
Visibility: 10 miles , 16 km
Cloud details: Partly cloudy 4500 ft
2019/08/24 22:54 KIMT 242254Z AUTO 20008KT 10SM SCT045 22/10 A3025 RMK AO2 SLP248 T02170100 $
 
KSAW - K.I. Sawyer Field, Marquette, MI
Updated: 08/24/2019 5:47pm
Clear
Clear
 Wind from NE
Wind: NE 9 mph , 15 km/h
Temperature: 70°F , 21°C
Dew Point: 52°F , 11°C
Humidity: 53%
Barometer: 30.25 inHg , 1024.4 hPa
Clouds: Clear
Visibility: 10 miles , 16 km
2019/08/24 22:47 KSAW 242247Z 04008KT 10SM SKC 21/11 A3025
KIWD - Iron County Airport, Ironwood, MI
Updated: 08/24/2019 4:56pm
Clear
Clear
 Wind from SSE
Wind: SSE 7 mph , 11 km/h
Temperature: 72°F , 22°C
Dew Point: 50°F , 10°C
Humidity: 47%
Barometer: 30.23 inHg , 1023.7 hPa
Clouds: Clear
Visibility: 10 miles , 16 km
2019/08/24 21:56 KIWD 242156Z AUTO 16006KT 10SM CLR 22/10 A3023 RMK AO2 SLP235 T02170100